sensor_id;sensor_type;location;lat;lon;timestamp;temperature;humidity
21807;DHT22;11065;50.786;7.840;2023-11-21T00:00:04;12.10;59.30
21807;DHT22;11065;50.786;7.840;2023-11-21T00:02:40;12.20;59.30
21807;DHT22;11065;50.786;7.840;2023-11-21T00:05:08;12.10;59.20
21807;DHT22;11065;50.786;7.840;2023-11-21T00:07:37;12.10;59.20
21807;DHT22;11065;50.786;7.840;2023-11-21T00:10:06;12.20;59.20
21807;DHT22;11065;50.786;7.840;2023-11-21T00:12:35;12.20;59.20
21807;DHT22;11065;50.786;7.840;2023-11-21T00:15:03;12.20;59.20
21807;DHT22;11065;50.786;7.840;2023-11-21T00:17:32;12.20;59.20
21807;DHT22;11065;50.786;7.840;2023-11-21T00:20:02;12.10;59.10
21807;DHT22;11065;50.786;7.840;2023-11-21T00:22:33;12.10;59.10
21807;DHT22;11065;50.786;7.840;2023-11-21T00:25:01;12.10;59.10
21807;DHT22;11065;50.786;7.840;2023-11-21T00:27:31;12.10;59.10
21807;DHT22;11065;50.786;7.840;2023-11-21T00:29:59;12.10;59.10
21807;DHT22;11065;50.786;7.840;2023-11-21T00:32:27;12.00;59.10
21807;DHT22;11065;50.786;7.840;2023-11-21T00:34:55;12.10;59.10
21807;DHT22;11065;50.786;7.840;2023-11-21T00:37:24;12.10;59.20
21807;DHT22;11065;50.786;7.840;2023-11-21T00:39:53;12.00;59.10
21807;DHT22;11065;50.786;7.840;2023-11-21T00:42:20;12.00;59.10
21807;DHT22;11065;50.786;7.840;2023-11-21T00:44:50;12.00;59.10
21807;DHT22;11065;50.786;7.840;2023-11-21T00:47:18;12.00;59.20
21807;DHT22;11065;50.786;7.840;2023-11-21T00:49:46;12.00;59.20
21807;DHT22;11065;50.786;7.840;2023-11-21T00:52:15;12.00;59.20
21807;DHT22;11065;50.786;7.840;2023-11-21T00:54:45;12.10;59.30
21807;DHT22;11065;50.786;7.840;2023-11-21T00:57:12;12.00;59.40
21807;DHT22;11065;50.786;7.840;2023-11-21T00:59:40;12.00;59.40
21807;DHT22;11065;50.786;7.840;2023-11-21T01:02:08;12.00;59.30
21807;DHT22;11065;50.786;7.840;2023-11-21T01:04:37;12.00;59.40
21807;DHT22;11065;50.786;7.840;2023-11-21T01:07:05;12.00;59.40
21807;DHT22;11065;50.786;7.840;2023-11-21T01:09:33;12.00;59.40
21807;DHT22;11065;50.786;7.840;2023-11-21T01:12:03;12.00;59.30
21807;DHT22;11065;50.786;7.840;2023-11-21T01:14:31;12.00;59.40
21807;DHT22;11065;50.786;7.840;2023-11-21T01:16:59;12.00;59.50
21807;DHT22;11065;50.786;7.840;2023-11-21T01:19:27;12.00;59.50
21807;DHT22;11065;50.786;7.840;2023-11-21T01:21:56;12.00;59.50
21807;DHT22;11065;50.786;7.840;2023-11-21T01:24:24;12.00;59.50
21807;DHT22;11065;50.786;7.840;2023-11-21T01:26:52;12.00;59.50
21807;DHT22;11065;50.786;7.840;2023-11-21T01:29:21;12.00;59.50
21807;DHT22;11065;50.786;7.840;2023-11-21T01:31:49;11.90;59.40
21807;DHT22;11065;50.786;7.840;2023-11-21T01:34:18;12.00;59.30
21807;DHT22;11065;50.786;7.840;2023-11-21T01:36:47;12.00;59.30
21807;DHT22;11065;50.786;7.840;2023-11-21T01:39:15;11.90;59.20
21807;DHT22;11065;50.786;7.840;2023-11-21T01:41:50;11.90;59.10
21807;DHT22;11065;50.786;7.840;2023-11-21T01:44:18;11.90;59.10
21807;DHT22;11065;50.786;7.840;2023-11-21T01:46:48;11.90;59.10
21807;DHT22;11065;50.786;7.840;2023-11-21T01:49:17;11.90;59.10
21807;DHT22;11065;50.786;7.840;2023-11-21T01:51:48;11.80;59.50
21807;DHT22;11065;50.786;7.840;2023-11-21T01:54:17;11.80;59.10
21807;DHT22;11065;50.786;7.840;2023-11-21T01:56:46;11.80;59.10
21807;DHT22;11065;50.786;7.840;2023-11-21T01:59:18;11.80;59.10
21807;DHT22;11065;50.786;7.840;2023-11-21T02:01:49;11.70;59.10
21807;DHT22;11065;50.786;7.840;2023-11-21T02:04:18;11.70;59.10
21807;DHT22;11065;50.786;7.840;2023-11-21T02:06:48;11.70;59.10
21807;DHT22;11065;50.786;7.840;2023-11-21T02:09:24;11.70;59.20
21807;DHT22;11065;50.786;7.840;2023-11-21T02:11:52;11.70;59.30
21807;DHT22;11065;50.786;7.840;2023-11-21T02:14:24;11.60;59.20
21807;DHT22;11065;50.786;7.840;2023-11-21T02:16:55;11.70;59.40
21807;DHT22;11065;50.786;7.840;2023-11-21T02:19:24;11.60;59.40
21807;DHT22;11065;50.786;7.840;2023-11-21T02:21:53;11.70;59.50
21807;DHT22;11065;50.786;7.840;2023-11-21T02:24:23;11.60;59.50
21807;DHT22;11065;50.786;7.840;2023-11-21T02:26:51;11.60;59.50
21807;DHT22;11065;50.786;7.840;2023-11-21T02:29:21;11.60;59.50
21807;DHT22;11065;50.786;7.840;2023-11-21T02:31:54;11.60;59.50
21807;DHT22;11065;50.786;7.840;2023-11-21T02:34:23;11.60;59.40
21807;DHT22;11065;50.786;7.840;2023-11-21T02:36:52;11.70;59.50
21807;DHT22;11065;50.786;7.840;2023-11-21T02:39:21;11.70;59.40
21807;DHT22;11065;50.786;7.840;2023-11-21T02:41:51;11.60;59.40
21807;DHT22;11065;50.786;7.840;2023-11-21T02:44:19;11.60;59.40
21807;DHT22;11065;50.786;7.840;2023-11-21T02:46:47;11.60;59.40
21807;DHT22;11065;50.786;7.840;2023-11-21T02:49:15;11.60;59.30
21807;DHT22;11065;50.786;7.840;2023-11-21T02:51:43;11.60;59.30
21807;DHT22;11065;50.786;7.840;2023-11-21T02:54:11;11.60;59.30
21807;DHT22;11065;50.786;7.840;2023-11-21T02:56:40;11.60;59.40
21807;DHT22;11065;50.786;7.840;2023-11-21T02:59:08;11.60;59.40
21807;DHT22;11065;50.786;7.840;2023-11-21T03:01:36;11.50;59.40
21807;DHT22;11065;50.786;7.840;2023-11-21T03:04:05;11.50;59.50
21807;DHT22;11065;50.786;7.840;2023-11-21T03:06:33;11.50;59.50
21807;DHT22;11065;50.786;7.840;2023-11-21T03:09:01;11.50;59.50
21807;DHT22;11065;50.786;7.840;2023-11-21T03:11:30;11.50;59.60
21807;DHT22;11065;50.786;7.840;2023-11-21T03:14:00;11.50;59.60
21807;DHT22;11065;50.786;7.840;2023-11-21T03:16:28;11.50;59.70
21807;DHT22;11065;50.786;7.840;2023-11-21T03:18:57;11.50;59.60
21807;DHT22;11065;50.786;7.840;2023-11-21T03:21:27;11.50;59.70
21807;DHT22;11065;50.786;7.840;2023-11-21T03:23:56;11.50;59.60
21807;DHT22;11065;50.786;7.840;2023-11-21T03:26:23;11.60;59.70
21807;DHT22;11065;50.786;7.840;2023-11-21T03:28:51;11.50;59.60
21807;DHT22;11065;50.786;7.840;2023-11-21T03:31:21;11.50;59.60
21807;DHT22;11065;50.786;7.840;2023-11-21T03:33:49;11.60;59.60
21807;DHT22;11065;50.786;7.840;2023-11-21T03:36:17;11.50;59.60
21807;DHT22;11065;50.786;7.840;2023-11-21T03:38:45;11.50;59.60
21807;DHT22;11065;50.786;7.840;2023-11-21T03:41:13;11.60;59.60
21807;DHT22;11065;50.786;7.840;2023-11-21T03:43:42;11.50;59.50
21807;DHT22;11065;50.786;7.840;2023-11-21T03:46:13;11.50;59.50
21807;DHT22;11065;50.786;7.840;2023-11-21T03:48:43;11.50;59.50
21807;DHT22;11065;50.786;7.840;2023-11-21T03:51:11;11.50;59.60
21807;DHT22;11065;50.786;7.840;2023-11-21T03:53:39;11.50;59.50
21807;DHT22;11065;50.786;7.840;2023-11-21T03:56:09;11.50;59.50
21807;DHT22;11065;50.786;7.840;2023-11-21T03:58:39;11.50;59.60
21807;DHT22;11065;50.786;7.840;2023-11-21T04:01:06;11.50;59.60
21807;DHT22;11065;50.786;7.840;2023-11-21T04:03:34;11.50;59.60
21807;DHT22;11065;50.786;7.840;2023-11-21T04:06:04;11.50;59.60
21807;DHT22;11065;50.786;7.840;2023-11-21T04:08:32;11.50;59.60
21807;DHT22;11065;50.786;7.840;2023-11-21T04:11:00;11.50;59.70
21807;DHT22;11065;50.786;7.840;2023-11-21T04:13:28;11.50;59.70
21807;DHT22;11065;50.786;7.840;2023-11-21T04:15:57;11.50;59.70
21807;DHT22;11065;50.786;7.840;2023-11-21T04:18:25;11.50;59.70
21807;DHT22;11065;50.786;7.840;2023-11-21T04:20:53;11.50;59.70
21807;DHT22;11065;50.786;7.840;2023-11-21T04:23:22;11.50;59.70
21807;DHT22;11065;50.786;7.840;2023-11-21T04:25:50;11.50;59.80
21807;DHT22;11065;50.786;7.840;2023-11-21T04:28:21;11.50;59.70
21807;DHT22;11065;50.786;7.840;2023-11-21T04:30:48;11.50;59.70
21807;DHT22;11065;50.786;7.840;2023-11-21T04:33:16;11.50;59.70
21807;DHT22;11065;50.786;7.840;2023-11-21T04:35:45;11.50;59.70
21807;DHT22;11065;50.786;7.840;2023-11-21T04:38:13;11.50;59.70
21807;DHT22;11065;50.786;7.840;2023-11-21T04:40:43;11.50;59.70
21807;DHT22;11065;50.786;7.840;2023-11-21T04:43:10;11.50;59.70
21807;DHT22;11065;50.786;7.840;2023-11-21T04:45:38;11.50;59.70
21807;DHT22;11065;50.786;7.840;2023-11-21T04:48:07;11.50;59.70
21807;DHT22;11065;50.786;7.840;2023-11-21T04:50:36;11.50;59.60
21807;DHT22;11065;50.786;7.840;2023-11-21T04:53:05;11.50;59.60
21807;DHT22;11065;50.786;7.840;2023-11-21T04:55:33;11.50;59.60
21807;DHT22;11065;50.786;7.840;2023-11-21T04:58:02;11.50;59.70
21807;DHT22;11065;50.786;7.840;2023-11-21T05:00:31;11.50;59.70
21807;DHT22;11065;50.786;7.840;2023-11-21T05:02:59;11.50;59.70
21807;DHT22;11065;50.786;7.840;2023-11-21T05:05:28;11.50;59.60
21807;DHT22;11065;50.786;7.840;2023-11-21T05:07:56;11.50;59.70
21807;DHT22;11065;50.786;7.840;2023-11-21T05:10:24;11.50;59.70
21807;DHT22;11065;50.786;7.840;2023-11-21T05:12:52;11.60;59.80
21807;DHT22;11065;50.786;7.840;2023-11-21T05:15:21;11.40;59.70
21807;DHT22;11065;50.786;7.840;2023-11-21T05:17:50;11.50;59.70
21807;DHT22;11065;50.786;7.840;2023-11-21T05:20:19;11.50;59.70
21807;DHT22;11065;50.786;7.840;2023-11-21T05:22:48;11.50;59.70
21807;DHT22;11065;50.786;7.840;2023-11-21T05:25:16;11.40;59.70
21807;DHT22;11065;50.786;7.840;2023-11-21T05:27:45;11.50;59.80
21807;DHT22;11065;50.786;7.840;2023-11-21T05:30:13;11.40;59.80
21807;DHT22;11065;50.786;7.840;2023-11-21T05:32:43;11.40;59.80
21807;DHT22;11065;50.786;7.840;2023-11-21T05:35:11;11.40;59.80
21807;DHT22;11065;50.786;7.840;2023-11-21T05:37:42;11.40;59.80
21807;DHT22;11065;50.786;7.840;2023-11-21T05:40:11;11.40;59.80
21807;DHT22;11065;50.786;7.840;2023-11-21T05:42:40;11.50;59.80
21807;DHT22;11065;50.786;7.840;2023-11-21T05:45:08;11.50;59.90
21807;DHT22;11065;50.786;7.840;2023-11-21T05:47:38;11.50;59.90
21807;DHT22;11065;50.786;7.840;2023-11-21T05:50:10;11.40;59.90
21807;DHT22;11065;50.786;7.840;2023-11-21T05:52:39;11.40;59.90
21807;DHT22;11065;50.786;7.840;2023-11-21T05:55:07;11.40;59.80
21807;DHT22;11065;50.786;7.840;2023-11-21T05:57:36;11.40;59.80
21807;DHT22;11065;50.786;7.840;2023-11-21T06:00:05;11.50;59.90
21807;DHT22;11065;50.786;7.840;2023-11-21T06:02:38;11.40;59.80
21807;DHT22;11065;50.786;7.840;2023-11-21T06:05:07;11.40;59.80
21807;DHT22;11065;50.786;7.840;2023-11-21T06:07:37;11.40;59.80
21807;DHT22;11065;50.786;7.840;2023-11-21T06:10:10;11.40;59.80
21807;DHT22;11065;50.786;7.840;2023-11-21T06:12:39;11.40;59.80
21807;DHT22;11065;50.786;7.840;2023-11-21T06:15:10;11.60;59.90
21807;DHT22;11065;50.786;7.840;2023-11-21T06:17:41;11.40;59.90
21807;DHT22;11065;50.786;7.840;2023-11-21T06:20:12;11.40;59.90
21807;DHT22;11065;50.786;7.840;2023-11-21T06:22:43;11.40;59.90
21807;DHT22;11065;50.786;7.840;2023-11-21T06:25:12;11.40;59.90
21807;DHT22;11065;50.786;7.840;2023-11-21T06:27:42;11.40;59.80
21807;DHT22;11065;50.786;7.840;2023-11-21T06:30:12;11.40;59.80
21807;DHT22;11065;50.786;7.840;2023-11-21T06:32:41;11.40;59.90
21807;DHT22;11065;50.786;7.840;2023-11-21T06:35:12;11.40;59.90
21807;DHT22;11065;50.786;7.840;2023-11-21T06:37:43;11.40;59.90
21807;DHT22;11065;50.786;7.840;2023-11-21T06:40:16;11.40;59.90
21807;DHT22;11065;50.786;7.840;2023-11-21T06:42:45;11.40;59.90
21807;DHT22;11065;50.786;7.840;2023-11-21T06:45:14;11.40;59.80
21807;DHT22;11065;50.786;7.840;2023-11-21T06:47:43;11.40;59.90
21807;DHT22;11065;50.786;7.840;2023-11-21T06:50:11;11.40;59.90
21807;DHT22;11065;50.786;7.840;2023-11-21T06:52:39;11.40;59.90
21807;DHT22;11065;50.786;7.840;2023-11-21T06:55:09;11.40;59.90
21807;DHT22;11065;50.786;7.840;2023-11-21T06:57:37;11.40;60.00
21807;DHT22;11065;50.786;7.840;2023-11-21T07:00:06;11.40;60.00
21807;DHT22;11065;50.786;7.840;2023-11-21T07:02:36;11.30;59.90
21807;DHT22;11065;50.786;7.840;2023-11-21T07:05:05;11.40;60.00
21807;DHT22;11065;50.786;7.840;2023-11-21T07:07:33;11.30;59.90
21807;DHT22;11065;50.786;7.840;2023-11-21T07:10:04;11.40;59.90
21807;DHT22;11065;50.786;7.840;2023-11-21T07:12:34;11.40;59.90
21807;DHT22;11065;50.786;7.840;2023-11-21T07:15:02;11.40;59.90
21807;DHT22;11065;50.786;7.840;2023-11-21T07:17:32;11.40;59.90
21807;DHT22;11065;50.786;7.840;2023-11-21T07:20:04;11.30;59.90
21807;DHT22;11065;50.786;7.840;2023-11-21T07:22:33;11.40;60.00
21807;DHT22;11065;50.786;7.840;2023-11-21T07:25:01;11.50;60.00
21807;DHT22;11065;50.786;7.840;2023-11-21T07:27:31;11.40;60.00
21807;DHT22;11065;50.786;7.840;2023-11-21T07:30:01;11.30;60.00
21807;DHT22;11065;50.786;7.840;2023-11-21T07:32:32;11.40;60.10
21807;DHT22;11065;50.786;7.840;2023-11-21T07:35:00;11.40;60.10
21807;DHT22;11065;50.786;7.840;2023-11-21T07:37:29;11.40;60.10
21807;DHT22;11065;50.786;7.840;2023-11-21T07:39:57;11.50;60.30
21807;DHT22;11065;50.786;7.840;2023-11-21T07:42:25;11.40;60.30
21807;DHT22;11065;50.786;7.840;2023-11-21T07:44:54;11.40;60.40
21807;DHT22;11065;50.786;7.840;2023-11-21T07:47:23;11.40;60.40
21807;DHT22;11065;50.786;7.840;2023-11-21T07:49:54;11.40;60.40
21807;DHT22;11065;50.786;7.840;2023-11-21T07:52:22;11.40;60.30
21807;DHT22;11065;50.786;7.840;2023-11-21T07:54:50;11.40;60.30
21807;DHT22;11065;50.786;7.840;2023-11-21T07:57:18;11.50;60.30
21807;DHT22;11065;50.786;7.840;2023-11-21T07:59:46;11.50;60.30
21807;DHT22;11065;50.786;7.840;2023-11-21T08:02:14;11.50;60.30
21807;DHT22;11065;50.786;7.840;2023-11-21T08:04:44;11.50;60.30
21807;DHT22;11065;50.786;7.840;2023-11-21T08:07:12;11.50;60.40
21807;DHT22;11065;50.786;7.840;2023-11-21T08:09:40;11.60;60.50
21807;DHT22;11065;50.786;7.840;2023-11-21T08:12:08;11.60;60.50
21807;DHT22;11065;50.786;7.840;2023-11-21T08:14:37;11.60;60.50
21807;DHT22;11065;50.786;7.840;2023-11-21T08:17:07;11.60;60.50
21807;DHT22;11065;50.786;7.840;2023-11-21T08:19:37;11.60;60.60
21807;DHT22;11065;50.786;7.840;2023-11-21T08:22:06;11.70;60.60
21807;DHT22;11065;50.786;7.840;2023-11-21T08:24:34;11.70;60.60
21807;DHT22;11065;50.786;7.840;2023-11-21T08:27:03;11.70;60.60
21807;DHT22;11065;50.786;7.840;2023-11-21T08:29:31;11.80;60.70
21807;DHT22;11065;50.786;7.840;2023-11-21T08:31:59;11.80;60.60
21807;DHT22;11065;50.786;7.840;2023-11-21T08:34:27;11.80;60.60
21807;DHT22;11065;50.786;7.840;2023-11-21T08:36:56;11.90;60.70
21807;DHT22;11065;50.786;7.840;2023-11-21T08:39:25;11.90;60.50
21807;DHT22;11065;50.786;7.840;2023-11-21T08:41:53;12.00;60.60
21807;DHT22;11065;50.786;7.840;2023-11-21T08:44:21;12.00;60.50
21807;DHT22;11065;50.786;7.840;2023-11-21T08:46:49;12.00;60.50
21807;DHT22;11065;50.786;7.840;2023-11-21T08:49:17;12.10;60.60
21807;DHT22;11065;50.786;7.840;2023-11-21T08:51:45;12.00;60.70
21807;DHT22;11065;50.786;7.840;2023-11-21T08:54:14;12.10;61.00
21807;DHT22;11065;50.786;7.840;2023-11-21T08:56:44;12.20;61.10
21807;DHT22;11065;50.786;7.840;2023-11-21T08:59:13;12.20;61.00
21807;DHT22;11065;50.786;7.840;2023-11-21T09:01:42;12.30;61.10
21807;DHT22;11065;50.786;7.840;2023-11-21T09:04:09;12.40;61.10
21807;DHT22;11065;50.786;7.840;2023-11-21T09:06:38;12.40;60.90
21807;DHT22;11065;50.786;7.840;2023-11-21T09:09:06;12.50;60.70
21807;DHT22;11065;50.786;7.840;2023-11-21T09:11:35;12.50;60.60
21807;DHT22;11065;50.786;7.840;2023-11-21T09:14:04;12.70;60.60
21807;DHT22;11065;50.786;7.840;2023-11-21T09:16:32;12.60;60.20
21807;DHT22;11065;50.786;7.840;2023-11-21T09:19:00;12.70;60.30
21807;DHT22;11065;50.786;7.840;2023-11-21T09:21:32;12.70;60.10
21807;DHT22;11065;50.786;7.840;2023-11-21T09:24:01;12.70;60.70
21807;DHT22;11065;50.786;7.840;2023-11-21T09:26:29;12.70;59.90
21807;DHT22;11065;50.786;7.840;2023-11-21T09:28:57;12.90;59.90
21807;DHT22;11065;50.786;7.840;2023-11-21T09:31:26;12.80;59.80
21807;DHT22;11065;50.786;7.840;2023-11-21T09:33:54;12.80;59.80
21807;DHT22;11065;50.786;7.840;2023-11-21T09:36:24;12.80;59.70
21807;DHT22;11065;50.786;7.840;2023-11-21T09:38:54;12.80;59.60
21807;DHT22;11065;50.786;7.840;2023-11-21T09:41:29;12.80;59.50
21807;DHT22;11065;50.786;7.840;2023-11-21T09:44:02;12.80;59.60
21807;DHT22;11065;50.786;7.840;2023-11-21T09:46:35;12.80;60.00
21807;DHT22;11065;50.786;7.840;2023-11-21T09:49:09;12.80;59.40
21807;DHT22;11065;50.786;7.840;2023-11-21T09:51:39;12.80;59.40
21807;DHT22;11065;50.786;7.840;2023-11-21T09:54:10;12.80;59.30
21807;DHT22;11065;50.786;7.840;2023-11-21T09:56:38;12.70;59.30
21807;DHT22;11065;50.786;7.840;2023-11-21T09:59:06;12.80;59.30
21807;DHT22;11065;50.786;7.840;2023-11-21T10:01:38;12.70;59.30
21807;DHT22;11065;50.786;7.840;2023-11-21T10:04:08;12.80;59.30
21807;DHT22;11065;50.786;7.840;2023-11-21T10:06:39;12.70;59.30
21807;DHT22;11065;50.786;7.840;2023-11-21T10:09:10;12.70;59.30
21807;DHT22;11065;50.786;7.840;2023-11-21T10:11:40;12.70;59.40
21807;DHT22;11065;50.786;7.840;2023-11-21T10:14:10;12.70;59.40
21807;DHT22;11065;50.786;7.840;2023-11-21T10:16:41;12.70;59.40
21807;DHT22;11065;50.786;7.840;2023-11-21T10:19:14;12.70;59.40
21807;DHT22;11065;50.786;7.840;2023-11-21T10:21:43;12.70;59.50
21807;DHT22;11065;50.786;7.840;2023-11-21T10:24:11;12.70;59.50
21807;DHT22;11065;50.786;7.840;2023-11-21T10:26:40;12.70;59.60
21807;DHT22;11065;50.786;7.840;2023-11-21T10:29:19;12.70;59.60
21807;DHT22;11065;50.786;7.840;2023-11-21T10:31:50;12.80;59.60
21807;DHT22;11065;50.786;7.840;2023-11-21T10:34:21;12.80;59.60
21807;DHT22;11065;50.786;7.840;2023-11-21T10:36:49;12.80;59.70
21807;DHT22;11065;50.786;7.840;2023-11-21T10:39:18;12.90;59.80
21807;DHT22;11065;50.786;7.840;2023-11-21T10:41:48;12.90;59.90
21807;DHT22;11065;50.786;7.840;2023-11-21T10:44:17;13.00;59.90
21807;DHT22;11065;50.786;7.840;2023-11-21T10:46:51;13.00;59.70
21807;DHT22;11065;50.786;7.840;2023-11-21T10:49:24;13.10;59.70
21807;DHT22;11065;50.786;7.840;2023-11-21T10:51:53;13.10;59.60
21807;DHT22;11065;50.786;7.840;2023-11-21T10:54:24;13.10;59.50
21807;DHT22;11065;50.786;7.840;2023-11-21T10:57:00;13.10;59.40
21807;DHT22;11065;50.786;7.840;2023-11-21T10:59:29;13.20;59.40
21807;DHT22;11065;50.786;7.840;2023-11-21T11:02:01;13.20;59.40
21807;DHT22;11065;50.786;7.840;2023-11-21T11:04:31;13.20;59.10
21807;DHT22;11065;50.786;7.840;2023-11-21T11:07:02;13.20;59.30
21807;DHT22;11065;50.786;7.840;2023-11-21T11:09:32;13.30;59.30
21807;DHT22;11065;50.786;7.840;2023-11-21T11:12:02;13.30;59.40
21807;DHT22;11065;50.786;7.840;2023-11-21T11:14:32;13.40;59.40
21807;DHT22;11065;50.786;7.840;2023-11-21T11:17:02;13.40;59.50
21807;DHT22;11065;50.786;7.840;2023-11-21T11:19:33;13.40;59.30
21807;DHT22;11065;50.786;7.840;2023-11-21T11:22:19;13.50;59.30
21807;DHT22;11065;50.786;7.840;2023-11-21T11:25:16;13.50;59.00
21807;DHT22;11065;50.786;7.840;2023-11-21T11:27:53;13.50;58.90
21807;DHT22;11065;50.786;7.840;2023-11-21T11:30:32;13.60;58.80
21807;DHT22;11065;50.786;7.840;2023-11-21T11:33:11;13.60;58.80
21807;DHT22;11065;50.786;7.840;2023-11-21T11:35:49;13.70;58.80
21807;DHT22;11065;50.786;7.840;2023-11-21T11:38:21;13.60;58.70
21807;DHT22;11065;50.786;7.840;2023-11-21T11:40:53;13.60;58.70
21807;DHT22;11065;50.786;7.840;2023-11-21T11:43:28;13.60;58.60
21807;DHT22;11065;50.786;7.840;2023-11-21T11:45:56;13.60;58.60
21807;DHT22;11065;50.786;7.840;2023-11-21T11:48:27;13.60;58.70
21807;DHT22;11065;50.786;7.840;2023-11-21T11:51:04;13.60;58.60
21807;DHT22;11065;50.786;7.840;2023-11-21T11:53:36;13.70;58.50
21807;DHT22;11065;50.786;7.840;2023-11-21T11:56:23;13.60;58.60
21807;DHT22;11065;50.786;7.840;2023-11-21T11:58:54;13.70;58.40
21807;DHT22;11065;50.786;7.840;2023-11-21T12:01:24;13.70;58.50
21807;DHT22;11065;50.786;7.840;2023-11-21T12:04:24;13.70;58.40
21807;DHT22;11065;50.786;7.840;2023-11-21T12:07:01;13.60;58.30
21807;DHT22;11065;50.786;7.840;2023-11-21T12:09:32;13.60;58.40
21807;DHT22;11065;50.786;7.840;2023-11-21T12:12:02;13.60;58.40
21807;DHT22;11065;50.786;7.840;2023-11-21T12:14:31;13.60;58.50
21807;DHT22;11065;50.786;7.840;2023-11-21T12:16:59;13.60;58.50
21807;DHT22;11065;50.786;7.840;2023-11-21T12:19:29;13.60;58.50
21807;DHT22;11065;50.786;7.840;2023-11-21T12:21:57;13.60;58.50
21807;DHT22;11065;50.786;7.840;2023-11-21T12:24:25;13.60;58.60
21807;DHT22;11065;50.786;7.840;2023-11-21T12:26:55;13.60;58.70
21807;DHT22;11065;50.786;7.840;2023-11-21T12:29:23;13.60;58.80
21807;DHT22;11065;50.786;7.840;2023-11-21T12:31:51;13.60;58.90
21807;DHT22;11065;50.786;7.840;2023-11-21T12:34:19;13.70;59.00
21807;DHT22;11065;50.786;7.840;2023-11-21T12:36:49;13.70;59.20
21807;DHT22;11065;50.786;7.840;2023-11-21T12:39:17;13.80;59.40
21807;DHT22;11065;50.786;7.840;2023-11-21T12:41:49;13.80;59.50
21807;DHT22;11065;50.786;7.840;2023-11-21T12:44:17;13.90;59.40
21807;DHT22;11065;50.786;7.840;2023-11-21T12:46:45;14.00;59.20
21807;DHT22;11065;50.786;7.840;2023-11-21T12:49:14;14.10;59.10
21807;DHT22;11065;50.786;7.840;2023-11-21T12:51:45;14.10;58.90
21807;DHT22;11065;50.786;7.840;2023-11-21T12:54:15;14.20;58.70
21807;DHT22;11065;50.786;7.840;2023-11-21T12:56:45;14.20;58.50
21807;DHT22;11065;50.786;7.840;2023-11-21T12:59:15;14.20;58.40
21807;DHT22;11065;50.786;7.840;2023-11-21T13:01:44;14.20;58.30
21807;DHT22;11065;50.786;7.840;2023-11-21T13:04:13;14.20;58.20
21807;DHT22;11065;50.786;7.840;2023-11-21T13:06:41;14.20;58.10
21807;DHT22;11065;50.786;7.840;2023-11-21T13:09:09;14.20;58.00
21807;DHT22;11065;50.786;7.840;2023-11-21T13:11:39;14.20;58.10
21807;DHT22;11065;50.786;7.840;2023-11-21T13:14:08;14.20;58.10
21807;DHT22;11065;50.786;7.840;2023-11-21T13:16:38;14.10;58.10
21807;DHT22;11065;50.786;7.840;2023-11-21T13:19:12;14.10;58.20
21807;DHT22;11065;50.786;7.840;2023-11-21T13:21:41;14.10;58.30
21807;DHT22;11065;50.786;7.840;2023-11-21T13:24:09;14.10;58.30
21807;DHT22;11065;50.786;7.840;2023-11-21T13:26:38;14.10;58.20
21807;DHT22;11065;50.786;7.840;2023-11-21T13:29:07;14.10;58.30
21807;DHT22;11065;50.786;7.840;2023-11-21T13:31:35;14.10;58.20
21807;DHT22;11065;50.786;7.840;2023-11-21T13:34:05;14.10;58.30
21807;DHT22;11065;50.786;7.840;2023-11-21T13:36:35;14.10;58.30
21807;DHT22;11065;50.786;7.840;2023-11-21T13:39:03;14.20;58.30
21807;DHT22;11065;50.786;7.840;2023-11-21T13:41:35;14.20;58.20
21807;DHT22;11065;50.786;7.840;2023-11-21T13:44:08;14.20;58.00
21807;DHT22;11065;50.786;7.840;2023-11-21T13:46:43;14.20;57.90
21807;DHT22;11065;50.786;7.840;2023-11-21T13:49:12;14.20;57.80
21807;DHT22;11065;50.786;7.840;2023-11-21T13:51:41;14.10;57.70
21807;DHT22;11065;50.786;7.840;2023-11-21T13:54:12;14.20;57.80
21807;DHT22;11065;50.786;7.840;2023-11-21T13:56:41;14.10;57.80
21807;DHT22;11065;50.786;7.840;2023-11-21T13:59:13;14.20;57.90
21807;DHT22;11065;50.786;7.840;2023-11-21T14:01:51;14.00;57.70
21807;DHT22;11065;50.786;7.840;2023-11-21T14:04:25;14.00;57.70
21807;DHT22;11065;50.786;7.840;2023-11-21T14:07:13;14.00;57.90
21807;DHT22;11065;50.786;7.840;2023-11-21T14:09:58;14.10;57.90
21807;DHT22;11065;50.786;7.840;2023-11-21T14:12:28;13.90;57.90
21807;DHT22;11065;50.786;7.840;2023-11-21T14:15:06;13.90;57.90
21807;DHT22;11065;50.786;7.840;2023-11-21T14:17:37;13.90;58.00
21807;DHT22;11065;50.786;7.840;2023-11-21T14:20:08;13.90;58.10
21807;DHT22;11065;50.786;7.840;2023-11-21T14:22:43;13.80;58.10
21807;DHT22;11065;50.786;7.840;2023-11-21T14:25:12;13.90;58.20
21807;DHT22;11065;50.786;7.840;2023-11-21T14:27:41;13.90;58.20
21807;DHT22;11065;50.786;7.840;2023-11-21T14:30:10;13.80;58.20
21807;DHT22;11065;50.786;7.840;2023-11-21T14:32:40;13.80;58.20
21807;DHT22;11065;50.786;7.840;2023-11-21T14:35:08;13.80;58.20
21807;DHT22;11065;50.786;7.840;2023-11-21T14:37:37;13.80;58.20
21807;DHT22;11065;50.786;7.840;2023-11-21T14:40:06;13.80;58.20
21807;DHT22;11065;50.786;7.840;2023-11-21T14:42:35;13.70;58.20
21807;DHT22;11065;50.786;7.840;2023-11-21T14:45:07;13.70;58.30
21807;DHT22;11065;50.786;7.840;2023-11-21T14:47:36;13.70;58.40
21807;DHT22;11065;50.786;7.840;2023-11-21T14:50:09;13.60;58.40
21807;DHT22;11065;50.786;7.840;2023-11-21T14:53:02;13.60;58.50
21807;DHT22;11065;50.786;7.840;2023-11-21T14:55:33;13.60;58.60
21807;DHT22;11065;50.786;7.840;2023-11-21T14:58:14;13.60;58.60
21807;DHT22;11065;50.786;7.840;2023-11-21T15:00:46;13.60;58.60
21807;DHT22;11065;50.786;7.840;2023-11-21T15:03:16;13.60;58.70
21807;DHT22;11065;50.786;7.840;2023-11-21T15:06:05;13.60;58.70
21807;DHT22;11065;50.786;7.840;2023-11-21T15:08:50;13.50;58.60
21807;DHT22;11065;50.786;7.840;2023-11-21T15:11:22;13.50;58.60
21807;DHT22;11065;50.786;7.840;2023-11-21T15:13:57;13.60;58.70
21807;DHT22;11065;50.786;7.840;2023-11-21T15:16:25;13.50;58.70
21807;DHT22;11065;50.786;7.840;2023-11-21T15:18:54;13.50;58.80
21807;DHT22;11065;50.786;7.840;2023-11-21T15:21:22;13.40;58.80
21807;DHT22;11065;50.786;7.840;2023-11-21T15:23:51;13.40;58.80
21807;DHT22;11065;50.786;7.840;2023-11-21T15:26:19;13.30;58.90
21807;DHT22;11065;50.786;7.840;2023-11-21T15:28:48;13.30;58.90
21807;DHT22;11065;50.786;7.840;2023-11-21T15:31:16;13.30;59.00
21807;DHT22;11065;50.786;7.840;2023-11-21T15:33:49;13.30;59.10
21807;DHT22;11065;50.786;7.840;2023-11-21T15:36:18;13.40;59.20
21807;DHT22;11065;50.786;7.840;2023-11-21T15:38:46;13.30;59.20
21807;DHT22;11065;50.786;7.840;2023-11-21T15:41:14;13.20;59.10
21807;DHT22;11065;50.786;7.840;2023-11-21T15:43:42;13.20;59.20
21807;DHT22;11065;50.786;7.840;2023-11-21T15:46:10;13.20;59.20